Terminal Aerodrome Forecast
Issued by NWS

Home | Current Version | Previous Version | Text Only | Print | Product List | Glossary On
Versions: 1 2 3 4 5 6 7 8 9 10 11 12 13 14 15 16 17
720
FTUS43 KEAX 121720
TAFSTJ
TAF
KSTJ 121720Z 1218/1318 36012G20KT P6SM SCT035
     FM122200 02008KT P6SM SCT100
     FM131200 10008KT P6SM BKN050=

USA.gov is the U.S. government's official web portal to all federal, state and local government web resources and services.